sensor_id;sensor_type;location;lat;lon;timestamp;P1;durP1;ratioP1;P2;durP2;ratioP2
3006;SDS011;1513;47.650;10.720;2023-01-23T00:01:22;52.63;;;15.83;;
3006;SDS011;1513;47.650;10.720;2023-01-23T00:03:55;77.73;;;16.80;;
3006;SDS011;1513;47.650;10.720;2023-01-23T00:06:22;43.63;;;14.60;;
3006;SDS011;1513;47.650;10.720;2023-01-23T00:08:48;60.80;;;15.40;;
3006;SDS011;1513;47.650;10.720;2023-01-23T00:11:15;44.13;;;15.50;;
3006;SDS011;1513;47.650;10.720;2023-01-23T00:13:47;42.30;;;13.60;;
3006;SDS011;1513;47.650;10.720;2023-01-23T00:16:14;47.23;;;14.63;;
3006;SDS011;1513;47.650;10.720;2023-01-23T00:18:43;44.37;;;13.83;;
3006;SDS011;1513;47.650;10.720;2023-01-23T00:21:11;32.40;;;12.43;;
3006;SDS011;1513;47.650;10.720;2023-01-23T00:23:40;52.63;;;15.87;;
3006;SDS011;1513;47.650;10.720;2023-01-23T00:26:13;47.77;;;16.03;;
3006;SDS011;1513;47.650;10.720;2023-01-23T00:28:43;41.33;;;14.03;;
3006;SDS011;1513;47.650;10.720;2023-01-23T00:31:11;49.93;;;15.00;;
3006;SDS011;1513;47.650;10.720;2023-01-23T00:33:40;48.37;;;15.13;;
3006;SDS011;1513;47.650;10.720;2023-01-23T00:36:07;42.50;;;14.20;;
3006;SDS011;1513;47.650;10.720;2023-01-23T00:38:34;50.67;;;15.23;;
3006;SDS011;1513;47.650;10.720;2023-01-23T00:41:00;38.27;;;12.70;;
3006;SDS011;1513;47.650;10.720;2023-01-23T00:43:27;40.63;;;13.43;;
3006;SDS011;1513;47.650;10.720;2023-01-23T00:45:54;42.90;;;14.87;;
3006;SDS011;1513;47.650;10.720;2023-01-23T00:48:21;45.73;;;13.93;;
3006;SDS011;1513;47.650;10.720;2023-01-23T00:50:47;43.33;;;14.13;;
3006;SDS011;1513;47.650;10.720;2023-01-23T00:53:13;40.60;;;12.47;;
3006;SDS011;1513;47.650;10.720;2023-01-23T00:55:39;56.13;;;15.00;;
3006;SDS011;1513;47.650;10.720;2023-01-23T00:58:06;42.23;;;15.87;;
3006;SDS011;1513;47.650;10.720;2023-01-23T01:00:37;39.30;;;13.40;;
3006;SDS011;1513;47.650;10.720;2023-01-23T01:03:04;34.77;;;12.20;;
3006;SDS011;1513;47.650;10.720;2023-01-23T01:05:31;33.80;;;13.97;;
3006;SDS011;1513;47.650;10.720;2023-01-23T01:07:58;38.13;;;12.10;;
3006;SDS011;1513;47.650;10.720;2023-01-23T01:10:26;30.77;;;10.70;;
3006;SDS011;1513;47.650;10.720;2023-01-23T01:12:56;30.40;;;11.60;;
3006;SDS011;1513;47.650;10.720;2023-01-23T01:15:24;31.77;;;11.13;;
3006;SDS011;1513;47.650;10.720;2023-01-23T01:17:50;35.03;;;12.23;;
3006;SDS011;1513;47.650;10.720;2023-01-23T01:20:19;28.70;;;10.77;;
3006;SDS011;1513;47.650;10.720;2023-01-23T01:22:47;30.17;;;10.63;;
3006;SDS011;1513;47.650;10.720;2023-01-23T01:25:14;32.53;;;11.50;;
3006;SDS011;1513;47.650;10.720;2023-01-23T01:27:40;34.60;;;12.37;;
3006;SDS011;1513;47.650;10.720;2023-01-23T01:30:06;29.20;;;10.20;;
3006;SDS011;1513;47.650;10.720;2023-01-23T01:32:37;38.30;;;11.50;;
3006;SDS011;1513;47.650;10.720;2023-01-23T01:35:04;28.77;;;10.03;;
3006;SDS011;1513;47.650;10.720;2023-01-23T01:37:38;27.30;;;10.40;;
3006;SDS011;1513;47.650;10.720;2023-01-23T01:40:06;25.77;;;10.20;;
3006;SDS011;1513;47.650;10.720;2023-01-23T01:42:39;34.40;;;12.13;;
3006;SDS011;1513;47.650;10.720;2023-01-23T01:48:47;30.10;;;11.93;;
3006;SDS011;1513;47.650;10.720;2023-01-23T01:54:10;35.37;;;11.77;;
3006;SDS011;1513;47.650;10.720;2023-01-23T01:56:55;33.93;;;11.00;;
3006;SDS011;1513;47.650;10.720;2023-01-23T01:59:42;34.23;;;12.00;;
3006;SDS011;1513;47.650;10.720;2023-01-23T02:02:17;29.73;;;11.43;;
3006;SDS011;1513;47.650;10.720;2023-01-23T02:04:50;31.07;;;11.47;;
3006;SDS011;1513;47.650;10.720;2023-01-23T02:08:10;37.10;;;12.70;;
3006;SDS011;1513;47.650;10.720;2023-01-23T02:10:18;33.53;;;11.60;;
3006;SDS011;1513;47.650;10.720;2023-01-23T02:12:46;38.63;;;13.37;;
3006;SDS011;1513;47.650;10.720;2023-01-23T02:15:14;32.77;;;10.67;;
3006;SDS011;1513;47.650;10.720;2023-01-23T02:17:42;33.63;;;12.50;;
3006;SDS011;1513;47.650;10.720;2023-01-23T02:20:25;33.40;;;13.13;;
3006;SDS011;1513;47.650;10.720;2023-01-23T02:28:34;41.63;;;11.53;;
3006;SDS011;1513;47.650;10.720;2023-01-23T02:31:07;38.00;;;12.53;;
3006;SDS011;1513;47.650;10.720;2023-01-23T02:35:59;33.00;;;12.07;;
3006;SDS011;1513;47.650;10.720;2023-01-23T02:38:29;38.67;;;13.10;;
3006;SDS011;1513;47.650;10.720;2023-01-23T02:41:00;32.00;;;12.17;;
3006;SDS011;1513;47.650;10.720;2023-01-23T02:43:30;38.00;;;12.83;;
3006;SDS011;1513;47.650;10.720;2023-01-23T02:46:05;25.67;;;10.00;;
3006;SDS011;1513;47.650;10.720;2023-01-23T02:48:35;30.30;;;11.20;;
3006;SDS011;1513;47.650;10.720;2023-01-23T02:51:02;29.03;;;10.13;;
3006;SDS011;1513;47.650;10.720;2023-01-23T02:53:28;26.30;;;10.33;;
3006;SDS011;1513;47.650;10.720;2023-01-23T02:55:55;31.50;;;11.30;;
3006;SDS011;1513;47.650;10.720;2023-01-23T02:58:23;39.17;;;12.23;;
3006;SDS011;1513;47.650;10.720;2023-01-23T03:01:08;41.47;;;13.70;;
3006;SDS011;1513;47.650;10.720;2023-01-23T03:03:34;46.50;;;13.13;;
3006;SDS011;1513;47.650;10.720;2023-01-23T03:06:00;33.90;;;11.63;;
3006;SDS011;1513;47.650;10.720;2023-01-23T03:08:28;36.20;;;11.37;;
3006;SDS011;1513;47.650;10.720;2023-01-23T03:11:01;45.57;;;13.90;;
3006;SDS011;1513;47.650;10.720;2023-01-23T03:13:28;43.23;;;12.93;;
3006;SDS011;1513;47.650;10.720;2023-01-23T03:15:54;45.27;;;13.50;;
3006;SDS011;1513;47.650;10.720;2023-01-23T03:18:22;38.07;;;12.43;;
3006;SDS011;1513;47.650;10.720;2023-01-23T03:20:51;37.63;;;13.33;;
3006;SDS011;1513;47.650;10.720;2023-01-23T03:23:17;40.60;;;11.73;;
3006;SDS011;1513;47.650;10.720;2023-01-23T03:25:43;31.23;;;11.87;;
3006;SDS011;1513;47.650;10.720;2023-01-23T03:28:10;39.83;;;11.37;;
3006;SDS011;1513;47.650;10.720;2023-01-23T03:30:56;31.67;;;10.57;;
3006;SDS011;1513;47.650;10.720;2023-01-23T03:33:22;44.30;;;12.70;;
3006;SDS011;1513;47.650;10.720;2023-01-23T03:35:49;34.67;;;11.07;;
3006;SDS011;1513;47.650;10.720;2023-01-23T03:38:15;43.63;;;13.07;;
3006;SDS011;1513;47.650;10.720;2023-01-23T03:40:43;37.50;;;12.97;;
3006;SDS011;1513;47.650;10.720;2023-01-23T03:43:31;34.00;;;11.27;;
3006;SDS011;1513;47.650;10.720;2023-01-23T03:45:58;43.37;;;13.20;;
3006;SDS011;1513;47.650;10.720;2023-01-23T03:48:24;46.07;;;13.53;;
3006;SDS011;1513;47.650;10.720;2023-01-23T03:50:50;34.83;;;10.97;;
3006;SDS011;1513;47.650;10.720;2023-01-23T03:53:18;40.93;;;13.10;;
3006;SDS011;1513;47.650;10.720;2023-01-23T03:55:46;32.20;;;11.20;;
3006;SDS011;1513;47.650;10.720;2023-01-23T03:58:13;39.17;;;13.23;;
3006;SDS011;1513;47.650;10.720;2023-01-23T04:00:41;40.27;;;12.60;;
3006;SDS011;1513;47.650;10.720;2023-01-23T04:03:07;43.20;;;14.40;;
3006;SDS011;1513;47.650;10.720;2023-01-23T04:05:36;37.53;;;12.00;;
3006;SDS011;1513;47.650;10.720;2023-01-23T04:08:02;37.00;;;10.00;;
3006;SDS011;1513;47.650;10.720;2023-01-23T04:10:28;38.57;;;12.80;;
3006;SDS011;1513;47.650;10.720;2023-01-23T04:13:00;41.23;;;13.83;;
3006;SDS011;1513;47.650;10.720;2023-01-23T04:15:28;30.83;;;10.97;;
3006;SDS011;1513;47.650;10.720;2023-01-23T04:17:58;40.30;;;12.80;;
3006;SDS011;1513;47.650;10.720;2023-01-23T04:20:24;32.17;;;12.17;;
3006;SDS011;1513;47.650;10.720;2023-01-23T04:22:51;28.20;;;10.20;;
3006;SDS011;1513;47.650;10.720;2023-01-23T04:25:17;35.00;;;12.20;;
3006;SDS011;1513;47.650;10.720;2023-01-23T04:27:43;37.80;;;12.90;;
3006;SDS011;1513;47.650;10.720;2023-01-23T04:30:10;37.33;;;12.60;;
3006;SDS011;1513;47.650;10.720;2023-01-23T04:32:37;33.40;;;11.40;;
3006;SDS011;1513;47.650;10.720;2023-01-23T04:35:03;39.67;;;12.30;;
3006;SDS011;1513;47.650;10.720;2023-01-23T04:37:30;36.03;;;12.37;;
3006;SDS011;1513;47.650;10.720;2023-01-23T04:39:57;35.70;;;13.10;;
3006;SDS011;1513;47.650;10.720;2023-01-23T04:42:23;33.77;;;11.80;;
3006;SDS011;1513;47.650;10.720;2023-01-23T04:45:07;36.80;;;12.03;;
3006;SDS011;1513;47.650;10.720;2023-01-23T04:47:34;38.37;;;11.60;;
3006;SDS011;1513;47.650;10.720;2023-01-23T04:50:05;32.43;;;11.30;;
3006;SDS011;1513;47.650;10.720;2023-01-23T04:52:33;31.77;;;10.50;;
3006;SDS011;1513;47.650;10.720;2023-01-23T04:54:59;29.87;;;11.47;;
3006;SDS011;1513;47.650;10.720;2023-01-23T04:57:25;32.33;;;10.87;;
3006;SDS011;1513;47.650;10.720;2023-01-23T04:59:57;33.00;;;11.60;;
3006;SDS011;1513;47.650;10.720;2023-01-23T05:02:23;35.80;;;10.90;;
3006;SDS011;1513;47.650;10.720;2023-01-23T05:04:49;35.07;;;12.07;;
3006;SDS011;1513;47.650;10.720;2023-01-23T05:07:15;35.03;;;11.70;;
3006;SDS011;1513;47.650;10.720;2023-01-23T05:09:51;36.67;;;11.73;;
3006;SDS011;1513;47.650;10.720;2023-01-23T05:12:18;25.37;;;9.47;;
3006;SDS011;1513;47.650;10.720;2023-01-23T05:14:45;39.30;;;12.00;;
3006;SDS011;1513;47.650;10.720;2023-01-23T05:17:11;35.50;;;10.80;;
3006;SDS011;1513;47.650;10.720;2023-01-23T05:19:40;36.33;;;11.70;;
3006;SDS011;1513;47.650;10.720;2023-01-23T05:22:06;35.33;;;11.77;;
3006;SDS011;1513;47.650;10.720;2023-01-23T05:24:32;31.47;;;11.63;;
3006;SDS011;1513;47.650;10.720;2023-01-23T05:26:58;29.73;;;10.10;;
3006;SDS011;1513;47.650;10.720;2023-01-23T05:29:27;25.40;;;9.80;;
3006;SDS011;1513;47.650;10.720;2023-01-23T05:32:04;25.73;;;10.07;;
3006;SDS011;1513;47.650;10.720;2023-01-23T05:34:36;37.23;;;12.10;;
3006;SDS011;1513;47.650;10.720;2023-01-23T05:37:06;35.53;;;10.60;;
3006;SDS011;1513;47.650;10.720;2023-01-23T05:39:34;34.10;;;12.20;;
3006;SDS011;1513;47.650;10.720;2023-01-23T05:42:00;34.47;;;11.10;;
3006;SDS011;1513;47.650;10.720;2023-01-23T05:44:30;44.17;;;14.13;;
3006;SDS011;1513;47.650;10.720;2023-01-23T05:47:07;30.73;;;10.43;;
3006;SDS011;1513;47.650;10.720;2023-01-23T05:49:33;28.67;;;10.70;;
3006;SDS011;1513;47.650;10.720;2023-01-23T05:51:59;33.53;;;11.10;;
3006;SDS011;1513;47.650;10.720;2023-01-23T05:54:25;30.63;;;9.80;;
3006;SDS011;1513;47.650;10.720;2023-01-23T05:56:51;24.43;;;8.40;;
3006;SDS011;1513;47.650;10.720;2023-01-23T05:59:35;29.80;;;10.93;;
3006;SDS011;1513;47.650;10.720;2023-01-23T06:02:30;25.40;;;9.60;;
3006;SDS011;1513;47.650;10.720;2023-01-23T06:05:21;22.90;;;9.10;;
3006;SDS011;1513;47.650;10.720;2023-01-23T06:08:10;24.13;;;8.47;;
3006;SDS011;1513;47.650;10.720;2023-01-23T06:10:36;27.13;;;9.77;;
3006;SDS011;1513;47.650;10.720;2023-01-23T06:13:05;21.03;;;9.50;;
3006;SDS011;1513;47.650;10.720;2023-01-23T06:15:30;24.00;;;8.93;;
3006;SDS011;1513;47.650;10.720;2023-01-23T06:17:59;25.23;;;9.67;;
3006;SDS011;1513;47.650;10.720;2023-01-23T06:20:25;18.50;;;7.73;;
3006;SDS011;1513;47.650;10.720;2023-01-23T06:22:51;19.50;;;7.83;;
3006;SDS011;1513;47.650;10.720;2023-01-23T06:25:16;18.20;;;7.20;;
3006;SDS011;1513;47.650;10.720;2023-01-23T06:27:45;18.00;;;7.60;;
3006;SDS011;1513;47.650;10.720;2023-01-23T06:30:12;20.93;;;8.33;;
3006;SDS011;1513;47.650;10.720;2023-01-23T06:32:40;25.27;;;8.33;;
3006;SDS011;1513;47.650;10.720;2023-01-23T06:35:08;20.73;;;7.70;;
3006;SDS011;1513;47.650;10.720;2023-01-23T06:37:37;31.53;;;9.50;;
3006;SDS011;1513;47.650;10.720;2023-01-23T06:40:04;22.37;;;8.27;;
3006;SDS011;1513;47.650;10.720;2023-01-23T06:42:31;22.40;;;8.73;;
3006;SDS011;1513;47.650;10.720;2023-01-23T06:44:57;24.80;;;9.47;;
3006;SDS011;1513;47.650;10.720;2023-01-23T06:47:25;24.00;;;9.07;;
3006;SDS011;1513;47.650;10.720;2023-01-23T06:49:57;29.47;;;9.90;;
3006;SDS011;1513;47.650;10.720;2023-01-23T06:52:23;24.70;;;10.47;;
3006;SDS011;1513;47.650;10.720;2023-01-23T06:54:50;28.50;;;9.80;;
3006;SDS011;1513;47.650;10.720;2023-01-23T06:57:15;24.77;;;9.83;;
3006;SDS011;1513;47.650;10.720;2023-01-23T06:59:43;26.40;;;8.40;;
3006;SDS011;1513;47.650;10.720;2023-01-23T07:02:12;22.97;;;9.23;;
3006;SDS011;1513;47.650;10.720;2023-01-23T07:04:43;22.93;;;8.10;;
3006;SDS011;1513;47.650;10.720;2023-01-23T07:07:10;26.20;;;9.70;;
3006;SDS011;1513;47.650;10.720;2023-01-23T07:09:37;19.40;;;7.37;;
3006;SDS011;1513;47.650;10.720;2023-01-23T07:12:11;22.57;;;8.07;;
3006;SDS011;1513;47.650;10.720;2023-01-23T07:14:37;20.20;;;8.23;;
3006;SDS011;1513;47.650;10.720;2023-01-23T07:17:05;24.13;;;8.40;;
3006;SDS011;1513;47.650;10.720;2023-01-23T07:19:31;23.73;;;8.77;;
3006;SDS011;1513;47.650;10.720;2023-01-23T07:21:58;23.60;;;9.00;;
3006;SDS011;1513;47.650;10.720;2023-01-23T07:24:25;22.13;;;9.27;;
3006;SDS011;1513;47.650;10.720;2023-01-23T07:26:54;23.27;;;8.13;;
3006;SDS011;1513;47.650;10.720;2023-01-23T07:29:19;29.07;;;9.10;;
3006;SDS011;1513;47.650;10.720;2023-01-23T07:31:45;26.60;;;8.90;;
3006;SDS011;1513;47.650;10.720;2023-01-23T07:34:11;19.37;;;8.03;;
3006;SDS011;1513;47.650;10.720;2023-01-23T07:36:37;23.93;;;10.50;;
3006;SDS011;1513;47.650;10.720;2023-01-23T07:39:02;24.53;;;9.93;;
3006;SDS011;1513;47.650;10.720;2023-01-23T07:41:28;20.30;;;8.87;;
3006;SDS011;1513;47.650;10.720;2023-01-23T07:43:54;20.97;;;8.67;;
3006;SDS011;1513;47.650;10.720;2023-01-23T07:46:20;21.00;;;8.30;;
3006;SDS011;1513;47.650;10.720;2023-01-23T07:48:47;22.07;;;8.57;;
3006;SDS011;1513;47.650;10.720;2023-01-23T07:51:13;27.17;;;9.33;;
3006;SDS011;1513;47.650;10.720;2023-01-23T07:53:39;20.57;;;8.20;;
3006;SDS011;1513;47.650;10.720;2023-01-23T07:56:05;21.03;;;7.47;;
3006;SDS011;1513;47.650;10.720;2023-01-23T07:58:31;24.63;;;8.57;;
3006;SDS011;1513;47.650;10.720;2023-01-23T08:00:57;32.63;;;10.63;;
3006;SDS011;1513;47.650;10.720;2023-01-23T08:03:23;25.90;;;9.93;;
3006;SDS011;1513;47.650;10.720;2023-01-23T08:05:52;23.53;;;7.90;;
3006;SDS011;1513;47.650;10.720;2023-01-23T08:08:18;32.73;;;10.27;;
3006;SDS011;1513;47.650;10.720;2023-01-23T08:10:44;24.53;;;9.97;;
3006;SDS011;1513;47.650;10.720;2023-01-23T08:13:10;24.53;;;11.53;;
3006;SDS011;1513;47.650;10.720;2023-01-23T08:15:36;41.50;;;14.33;;
3006;SDS011;1513;47.650;10.720;2023-01-23T08:18:03;36.73;;;13.37;;
3006;SDS011;1513;47.650;10.720;2023-01-23T08:20:29;42.00;;;15.87;;
3006;SDS011;1513;47.650;10.720;2023-01-23T08:22:55;41.40;;;13.97;;
3006;SDS011;1513;47.650;10.720;2023-01-23T08:25:23;27.00;;;11.20;;
3006;SDS011;1513;47.650;10.720;2023-01-23T08:27:48;34.30;;;12.03;;
3006;SDS011;1513;47.650;10.720;2023-01-23T08:30:14;35.53;;;13.67;;
3006;SDS011;1513;47.650;10.720;2023-01-23T08:32:41;39.70;;;12.60;;
3006;SDS011;1513;47.650;10.720;2023-01-23T08:35:06;29.27;;;11.13;;
3006;SDS011;1513;47.650;10.720;2023-01-23T08:37:33;44.73;;;15.30;;
3006;SDS011;1513;47.650;10.720;2023-01-23T08:39:59;51.13;;;16.60;;
3006;SDS011;1513;47.650;10.720;2023-01-23T08:42:25;33.50;;;13.03;;
3006;SDS011;1513;47.650;10.720;2023-01-23T08:44:50;46.77;;;15.37;;
3006;SDS011;1513;47.650;10.720;2023-01-23T08:47:16;56.90;;;17.97;;
3006;SDS011;1513;47.650;10.720;2023-01-23T08:49:42;39.63;;;14.50;;
3006;SDS011;1513;47.650;10.720;2023-01-23T08:52:08;33.90;;;12.17;;
3006;SDS011;1513;47.650;10.720;2023-01-23T08:54:33;37.00;;;12.60;;
3006;SDS011;1513;47.650;10.720;2023-01-23T08:56:59;40.30;;;13.30;;
3006;SDS011;1513;47.650;10.720;2023-01-23T08:59:25;36.00;;;11.90;;
3006;SDS011;1513;47.650;10.720;2023-01-23T09:01:52;38.67;;;12.73;;
3006;SDS011;1513;47.650;10.720;2023-01-23T09:04:18;40.67;;;13.70;;
3006;SDS011;1513;47.650;10.720;2023-01-23T09:06:44;34.40;;;10.63;;
3006;SDS011;1513;47.650;10.720;2023-01-23T09:09:10;34.00;;;10.67;;
3006;SDS011;1513;47.650;10.720;2023-01-23T09:11:36;44.30;;;15.20;;
3006;SDS011;1513;47.650;10.720;2023-01-23T09:14:01;46.93;;;13.60;;
3006;SDS011;1513;47.650;10.720;2023-01-23T09:16:27;48.23;;;16.73;;
3006;SDS011;1513;47.650;10.720;2023-01-23T09:18:54;33.83;;;13.30;;
3006;SDS011;1513;47.650;10.720;2023-01-23T09:21:20;43.43;;;13.67;;
3006;SDS011;1513;47.650;10.720;2023-01-23T09:23:46;41.90;;;14.07;;
3006;SDS011;1513;47.650;10.720;2023-01-23T09:26:12;27.07;;;10.83;;
3006;SDS011;1513;47.650;10.720;2023-01-23T09:28:39;40.60;;;12.47;;
3006;SDS011;1513;47.650;10.720;2023-01-23T09:31:07;51.20;;;15.37;;
3006;SDS011;1513;47.650;10.720;2023-01-23T09:33:36;42.40;;;13.27;;
3006;SDS011;1513;47.650;10.720;2023-01-23T09:36:02;48.80;;;14.83;;
3006;SDS011;1513;47.650;10.720;2023-01-23T09:38:29;44.33;;;14.40;;
3006;SDS011;1513;47.650;10.720;2023-01-23T09:40:58;41.63;;;14.10;;
3006;SDS011;1513;47.650;10.720;2023-01-23T09:46:21;52.63;;;16.20;;
3006;SDS011;1513;47.650;10.720;2023-01-23T09:54:21;47.33;;;14.67;;
3006;SDS011;1513;47.650;10.720;2023-01-23T09:56:50;38.97;;;12.70;;
3006;SDS011;1513;47.650;10.720;2023-01-23T10:02:31;44.50;;;13.63;;
3006;SDS011;1513;47.650;10.720;2023-01-23T10:04:57;41.20;;;13.10;;
3006;SDS011;1513;47.650;10.720;2023-01-23T10:07:42;48.97;;;16.10;;
3006;SDS011;1513;47.650;10.720;2023-01-23T10:10:58;55.47;;;15.50;;
3006;SDS011;1513;47.650;10.720;2023-01-23T10:22:46;47.70;;;14.33;;
3006;SDS011;1513;47.650;10.720;2023-01-23T10:25:34;57.17;;;16.80;;
3006;SDS011;1513;47.650;10.720;2023-01-23T10:28:16;38.00;;;12.53;;
3006;SDS011;1513;47.650;10.720;2023-01-23T10:30:59;43.97;;;13.20;;
3006;SDS011;1513;47.650;10.720;2023-01-23T10:33:35;39.47;;;11.57;;
3006;SDS011;1513;47.650;10.720;2023-01-23T10:36:35;55.40;;;14.80;;
3006;SDS011;1513;47.650;10.720;2023-01-23T10:39:13;50.13;;;14.60;;
3006;SDS011;1513;47.650;10.720;2023-01-23T10:41:45;49.73;;;14.37;;
3006;SDS011;1513;47.650;10.720;2023-01-23T10:44:14;57.07;;;16.10;;
3006;SDS011;1513;47.650;10.720;2023-01-23T10:46:46;51.23;;;14.30;;
3006;SDS011;1513;47.650;10.720;2023-01-23T10:49:34;57.93;;;16.30;;
3006;SDS011;1513;47.650;10.720;2023-01-23T10:52:03;56.77;;;16.80;;
3006;SDS011;1513;47.650;10.720;2023-01-23T10:54:53;40.07;;;14.80;;
3006;SDS011;1513;47.650;10.720;2023-01-23T10:57:25;47.70;;;14.70;;
3006;SDS011;1513;47.650;10.720;2023-01-23T11:03:16;47.57;;;13.70;;
3006;SDS011;1513;47.650;10.720;2023-01-23T11:05:53;48.40;;;15.77;;
3006;SDS011;1513;47.650;10.720;2023-01-23T11:08:20;46.90;;;14.47;;
3006;SDS011;1513;47.650;10.720;2023-01-23T11:13:41;52.47;;;16.17;;
3006;SDS011;1513;47.650;10.720;2023-01-23T11:16:16;46.07;;;14.97;;
3006;SDS011;1513;47.650;10.720;2023-01-23T11:18:53;47.07;;;15.53;;
3006;SDS011;1513;47.650;10.720;2023-01-23T11:21:53;44.90;;;15.00;;
3006;SDS011;1513;47.650;10.720;2023-01-23T11:26:57;40.30;;;13.97;;
3006;SDS011;1513;47.650;10.720;2023-01-23T11:29:29;43.10;;;15.50;;
3006;SDS011;1513;47.650;10.720;2023-01-23T11:32:16;43.20;;;14.53;;
3006;SDS011;1513;47.650;10.720;2023-01-23T11:34:43;38.53;;;12.10;;
3006;SDS011;1513;47.650;10.720;2023-01-23T11:37:27;38.43;;;13.37;;
3006;SDS011;1513;47.650;10.720;2023-01-23T11:42:32;31.27;;;11.73;;
3006;SDS011;1513;47.650;10.720;2023-01-23T11:45:04;34.03;;;11.33;;
3006;SDS011;1513;47.650;10.720;2023-01-23T11:48:02;39.87;;;13.10;;
3006;SDS011;1513;47.650;10.720;2023-01-23T11:58:36;39.10;;;13.67;;
3006;SDS011;1513;47.650;10.720;2023-01-23T12:01:32;37.00;;;12.70;;
3006;SDS011;1513;47.650;10.720;2023-01-23T12:15:27;39.80;;;13.80;;
3006;SDS011;1513;47.650;10.720;2023-01-23T12:18:26;37.07;;;13.80;;
3006;SDS011;1513;47.650;10.720;2023-01-23T12:21:04;33.80;;;13.90;;
3006;SDS011;1513;47.650;10.720;2023-01-23T12:23:43;36.83;;;16.83;;
3006;SDS011;1513;47.650;10.720;2023-01-23T12:26:32;37.47;;;12.93;;
3006;SDS011;1513;47.650;10.720;2023-01-23T12:32:22;40.43;;;13.20;;
3006;SDS011;1513;47.650;10.720;2023-01-23T12:41:19;47.43;;;14.07;;
3006;SDS011;1513;47.650;10.720;2023-01-23T12:47:38;38.27;;;14.27;;
3006;SDS011;1513;47.650;10.720;2023-01-23T12:53:21;36.10;;;13.53;;
3006;SDS011;1513;47.650;10.720;2023-01-23T12:58:24;43.00;;;13.90;;
3006;SDS011;1513;47.650;10.720;2023-01-23T13:03:59;49.63;;;16.07;;
3006;SDS011;1513;47.650;10.720;2023-01-23T13:12:23;46.17;;;15.40;;
3006;SDS011;1513;47.650;10.720;2023-01-23T13:14:52;51.27;;;15.50;;
3006;SDS011;1513;47.650;10.720;2023-01-23T13:20:25;40.23;;;14.30;;
3006;SDS011;1513;47.650;10.720;2023-01-23T13:26:10;42.77;;;14.40;;
3006;SDS011;1513;47.650;10.720;2023-01-23T13:28:53;54.90;;;16.33;;
3006;SDS011;1513;47.650;10.720;2023-01-23T13:31:33;55.27;;;18.00;;
3006;SDS011;1513;47.650;10.720;2023-01-23T13:36:42;47.17;;;15.17;;
3006;SDS011;1513;47.650;10.720;2023-01-23T13:42:31;47.60;;;15.00;;
3006;SDS011;1513;47.650;10.720;2023-01-23T13:45:12;40.57;;;14.67;;
3006;SDS011;1513;47.650;10.720;2023-01-23T13:51:10;37.80;;;14.03;;
3006;SDS011;1513;47.650;10.720;2023-01-23T13:53:46;46.37;;;14.90;;
3006;SDS011;1513;47.650;10.720;2023-01-23T13:56:33;49.10;;;16.43;;
3006;SDS011;1513;47.650;10.720;2023-01-23T13:59:37;49.73;;;17.80;;
3006;SDS011;1513;47.650;10.720;2023-01-23T14:02:21;46.33;;;16.93;;
3006;SDS011;1513;47.650;10.720;2023-01-23T14:05:23;44.07;;;15.77;;
3006;SDS011;1513;47.650;10.720;2023-01-23T14:07:59;51.37;;;16.13;;
3006;SDS011;1513;47.650;10.720;2023-01-23T14:10:33;39.17;;;12.53;;
3006;SDS011;1513;47.650;10.720;2023-01-23T14:13:08;38.97;;;12.67;;
3006;SDS011;1513;47.650;10.720;2023-01-23T14:15:38;45.33;;;14.77;;
3006;SDS011;1513;47.650;10.720;2023-01-23T14:18:30;45.30;;;15.80;;
3006;SDS011;1513;47.650;10.720;2023-01-23T14:23:58;42.90;;;14.67;;
3006;SDS011;1513;47.650;10.720;2023-01-23T14:26:29;40.47;;;15.50;;
3006;SDS011;1513;47.650;10.720;2023-01-23T14:28:59;43.57;;;15.10;;
3006;SDS011;1513;47.650;10.720;2023-01-23T14:31:34;44.20;;;15.10;;
3006;SDS011;1513;47.650;10.720;2023-01-23T14:34:05;50.40;;;18.03;;
3006;SDS011;1513;47.650;10.720;2023-01-23T14:36:41;40.47;;;15.50;;
3006;SDS011;1513;47.650;10.720;2023-01-23T14:39:20;51.90;;;16.43;;
3006;SDS011;1513;47.650;10.720;2023-01-23T14:41:49;56.90;;;15.90;;
3006;SDS011;1513;47.650;10.720;2023-01-23T14:44:21;47.93;;;17.40;;
3006;SDS011;1513;47.650;10.720;2023-01-23T14:47:02;46.20;;;16.70;;
3006;SDS011;1513;47.650;10.720;2023-01-23T14:49:30;49.63;;;15.80;;
3006;SDS011;1513;47.650;10.720;2023-01-23T14:52:01;67.00;;;18.07;;
3006;SDS011;1513;47.650;10.720;2023-01-23T14:54:30;46.90;;;15.90;;
3006;SDS011;1513;47.650;10.720;2023-01-23T14:56:58;56.33;;;17.90;;
3006;SDS011;1513;47.650;10.720;2023-01-23T14:59:32;48.07;;;17.23;;
3006;SDS011;1513;47.650;10.720;2023-01-23T15:02:18;49.33;;;17.10;;
3006;SDS011;1513;47.650;10.720;2023-01-23T15:07:52;65.53;;;18.40;;
3006;SDS011;1513;47.650;10.720;2023-01-23T15:10:49;46.17;;;14.67;;
3006;SDS011;1513;47.650;10.720;2023-01-23T15:13:20;62.00;;;19.93;;
3006;SDS011;1513;47.650;10.720;2023-01-23T15:16:03;66.73;;;18.47;;
3006;SDS011;1513;47.650;10.720;2023-01-23T15:18:39;59.80;;;21.57;;
3006;SDS011;1513;47.650;10.720;2023-01-23T15:21:45;68.23;;;19.30;;
3006;SDS011;1513;47.650;10.720;2023-01-23T15:26:38;77.33;;;21.97;;
3006;SDS011;1513;47.650;10.720;2023-01-23T15:44:36;89.03;;;24.70;;
3006;SDS011;1513;47.650;10.720;2023-01-23T15:47:02;104.63;;;26.50;;
3006;SDS011;1513;47.650;10.720;2023-01-23T15:49:30;84.67;;;23.77;;
3006;SDS011;1513;47.650;10.720;2023-01-23T15:52:00;111.93;;;26.47;;
3006;SDS011;1513;47.650;10.720;2023-01-23T15:54:38;83.20;;;23.73;;
3006;SDS011;1513;47.650;10.720;2023-01-23T15:57:04;97.20;;;23.90;;
3006;SDS011;1513;47.650;10.720;2023-01-23T15:59:34;104.77;;;23.63;;
3006;SDS011;1513;47.650;10.720;2023-01-23T16:02:00;130.93;;;29.17;;
3006;SDS011;1513;47.650;10.720;2023-01-23T16:04:26;111.80;;;27.60;;
3006;SDS011;1513;47.650;10.720;2023-01-23T16:06:52;108.03;;;23.60;;
3006;SDS011;1513;47.650;10.720;2023-01-23T16:09:22;115.80;;;27.20;;
3006;SDS011;1513;47.650;10.720;2023-01-23T16:11:55;120.37;;;27.60;;
3006;SDS011;1513;47.650;10.720;2023-01-23T16:14:22;113.57;;;26.67;;
3006;SDS011;1513;47.650;10.720;2023-01-23T16:16:48;126.77;;;28.07;;
3006;SDS011;1513;47.650;10.720;2023-01-23T16:19:14;123.17;;;26.73;;
3006;SDS011;1513;47.650;10.720;2023-01-23T16:21:40;149.73;;;30.00;;
3006;SDS011;1513;47.650;10.720;2023-01-23T16:24:30;118.27;;;28.43;;
3006;SDS011;1513;47.650;10.720;2023-01-23T16:26:59;95.20;;;26.13;;
3006;SDS011;1513;47.650;10.720;2023-01-23T16:29:30;130.73;;;25.53;;
3006;SDS011;1513;47.650;10.720;2023-01-23T16:31:59;128.30;;;29.87;;
3006;SDS011;1513;47.650;10.720;2023-01-23T16:34:26;122.87;;;27.27;;
3006;SDS011;1513;47.650;10.720;2023-01-23T16:36:54;149.77;;;30.77;;
3006;SDS011;1513;47.650;10.720;2023-01-23T16:39:23;137.27;;;28.20;;
3006;SDS011;1513;47.650;10.720;2023-01-23T16:41:51;114.53;;;28.43;;
3006;SDS011;1513;47.650;10.720;2023-01-23T16:44:20;139.30;;;28.87;;
3006;SDS011;1513;47.650;10.720;2023-01-23T16:46:48;159.20;;;28.07;;
3006;SDS011;1513;47.650;10.720;2023-01-23T16:49:16;137.57;;;29.67;;
3006;SDS011;1513;47.650;10.720;2023-01-23T16:51:55;143.03;;;28.57;;
3006;SDS011;1513;47.650;10.720;2023-01-23T16:54:23;148.07;;;28.90;;
3006;SDS011;1513;47.650;10.720;2023-01-23T16:56:50;143.97;;;29.93;;
3006;SDS011;1513;47.650;10.720;2023-01-23T16:59:39;141.27;;;31.50;;
3006;SDS011;1513;47.650;10.720;2023-01-23T17:02:26;217.68;;;44.70;;
3006;SDS011;1513;47.650;10.720;2023-01-23T17:04:53;176.90;;;38.37;;
3006;SDS011;1513;47.650;10.720;2023-01-23T17:07:19;123.30;;;30.30;;
3006;SDS011;1513;47.650;10.720;2023-01-23T17:09:45;167.67;;;32.73;;
3006;SDS011;1513;47.650;10.720;2023-01-23T17:12:19;159.67;;;35.60;;